Time;durP1;ratioP1;P1;durP2;ratioP2;P2;SDS_P1;SDS_P2;PMS_P1;PMS_P2;Temp;Humidity;BMP_temperature;BMP_pressure;BME280_temperature;BME280_humidity;BME280_pressure;Samples;Min_cycle;Max_cycle;Signal;HPM_P1;HPM_P2
2022/11/05 00:10:22;;;;;;;19.47;18.47;;;10.20;93.60;;;;;;5026227;28;20437;-69
2022/11/05 00:18:19;;;;;;;16.37;15.43;;;10.30;92.90;;;;;;5025891;28;21083;-69
2022/11/05 00:20:46;;;;;;;16.33;15.30;;;10.30;92.70;;;;;;5022148;28;20467;-69
2022/11/05 00:25:58;;;;;;;20.80;19.33;;;10.20;93.50;;;;;;5026144;28;20840;-69
2022/11/05 00:28:25;;;;;;;17.00;16.00;;;10.20;93.40;;;;;;5024385;28;21015;-69
2022/11/05 00:30:53;;;;;;;20.87;19.73;;;10.20;93.50;;;;;;5022970;28;20550;-69
2022/11/05 00:33:21;;;;;;;15.70;14.80;;;10.20;93.80;;;;;;5020680;28;20468;-69
2022/11/05 00:35:48;;;;;;;15.97;15.10;;;10.20;93.70;;;;;;5023703;28;21066;-69
2022/11/05 00:38:15;;;;;;;16.37;15.57;;;10.20;94.00;;;;;;5024562;28;21003;-69
2022/11/05 00:40:42;;;;;;;16.00;15.20;;;10.30;93.50;;;;;;5026890;28;20468;-69
2022/11/05 00:45:53;;;;;;;16.23;15.33;;;10.30;93.30;;;;;;5028239;28;20566;-69
2022/11/05 00:51:06;;;;;;;15.90;15.10;;;10.20;93.70;;;;;;5030809;28;20487;-69
2022/11/05 00:53:34;;;;;;;16.03;15.00;;;10.30;93.70;;;;;;5031537;28;20924;-69
2022/11/05 00:56:01;;;;;;;16.40;15.60;;;10.30;93.60;;;;;;5028227;28;20562;-69
2022/11/05 00:58:28;;;;;;;15.20;14.37;;;10.30;93.40;;;;;;5028347;28;20550;-69
2022/11/05 01:00:57;;;;;;;15.80;15.00;;;10.40;93.00;;;;;;5028561;28;20459;-69
2022/11/05 01:03:27;;;;;;;16.00;15.20;;;10.40;92.90;;;;;;5024980;28;20878;-68
2022/11/05 01:05:56;;;;;;;16.63;15.60;;;10.30;93.20;;;;;;5024474;28;20483;-69
2022/11/05 01:08:27;;;;;;;15.87;14.80;;;10.30;93.40;;;;;;5029746;28;20555;-68
2022/11/05 01:10:55;;;;;;;15.93;15.03;;;10.30;93.30;;;;;;5025229;28;20471;-69
2022/11/05 01:13:24;;;;;;;16.07;15.17;;;10.30;93.40;;;;;;5029390;28;20579;-69
2022/11/05 01:15:51;;;;;;;17.20;15.63;;;10.30;93.50;;;;;;5029358;28;20562;-68
2022/11/05 01:18:19;;;;;;;16.33;15.57;;;10.30;93.40;;;;;;5030734;28;20546;-69
2022/11/05 01:20:48;;;;;;;15.83;14.93;;;10.30;93.50;;;;;;5029269;28;20463;-68
2022/11/05 01:23:15;;;;;;;15.50;14.70;;;10.30;93.30;;;;;;5030308;28;20535;-68
2022/11/05 01:25:42;;;;;;;16.10;15.30;;;10.30;93.60;;;;;;5029620;28;21003;-69
2022/11/05 01:28:09;;;;;;;15.90;15.10;;;10.30;93.30;;;;;;5025985;28;20464;-69
2022/11/05 01:30:36;;;;;;;15.67;14.77;;;10.40;93.00;;;;;;5029444;28;20531;-69
2022/11/05 01:33:03;;;;;;;15.07;14.37;;;10.40;93.20;;;;;;5029721;28;20531;-69
2022/11/05 01:35:30;;;;;;;16.10;15.30;;;10.40;93.30;;;;;;5028465;28;20490;-68
2022/11/05 01:37:58;;;;;;;15.80;14.90;;;10.30;93.50;;;;;;5028443;28;20838;-69
2022/11/05 01:40:26;;;;;;;15.27;14.57;;;10.30;93.60;;;;;;5027592;28;20458;-69
2022/11/05 01:42:53;;;;;;;15.30;14.60;;;10.30;93.60;;;;;;5029731;28;20506;-68
2022/11/05 01:45:22;;;;;;;15.60;14.80;;;10.30;93.50;;;;;;5026374;28;20498;-68
2022/11/05 01:47:57;;;;;;;15.30;14.40;;;10.30;93.40;;;;;;5029369;28;20567;-68
2022/11/05 01:50:31;;;;;;;14.97;14.17;;;10.30;93.50;;;;;;5028965;28;20546;-68
2022/11/05 01:53:12;;;;;;;15.33;14.13;;;10.30;93.60;;;;;;5028648;28;20847;-68
2022/11/05 01:55:45;;;;;;;16.00;14.60;;;10.30;93.50;;;;;;5028005;28;20486;-68
2022/11/05 01:58:15;;;;;;;14.10;13.40;;;10.30;93.30;;;;;;5029742;28;20963;-68
2022/11/05 02:00:42;;;;;;;14.70;13.80;;;10.20;93.40;;;;;;5028829;28;20452;-68
2022/11/05 02:03:11;;;;;;;15.97;14.60;;;10.20;93.60;;;;;;5027777;28;20543;-68
2022/11/05 02:05:40;;;;;;;15.30;14.50;;;10.20;93.60;;;;;;5028326;28;20570;-68
2022/11/05 02:08:15;;;;;;;15.00;14.20;;;10.10;93.90;;;;;;5025027;28;20466;-68
2022/11/05 02:10:44;;;;;;;14.90;14.10;;;10.20;94.10;;;;;;5025575;28;20487;-69
2022/11/05 02:13:11;;;;;;;14.47;13.83;;;10.20;93.80;;;;;;5026726;28;20539;-69
2022/11/05 02:15:51;;;;;;;14.60;13.70;;;10.20;93.70;;;;;;5028214;28;20478;-68
2022/11/05 02:18:28;;;;;;;14.10;13.40;;;10.20;93.80;;;;;;5027404;28;20768;-68
2022/11/05 02:21:14;;;;;;;14.70;14.00;;;10.30;93.10;;;;;;5028192;28;20653;-68
2022/11/05 02:24:05;;;;;;;15.23;14.20;;;10.30;92.80;;;;;;5028927;28;20547;-68
2022/11/05 02:27:01;;;;;;;14.03;13.30;;;10.30;92.50;;;;;;5022571;28;20918;-69
2022/11/05 02:29:45;;;;;;;13.67;12.87;;;10.30;92.80;;;;;;5020637;28;20474;-69
2022/11/05 02:32:22;;;;;;;14.20;13.50;;;10.20;92.80;;;;;;5029194;28;20969;-68
2022/11/05 02:34:55;;;;;;;13.27;12.67;;;10.20;92.80;;;;;;5023295;28;20583;-68
2022/11/05 02:37:36;;;;;;;13.13;12.03;;;10.20;93.10;;;;;;5028256;28;20468;-68
2022/11/05 02:40:10;;;;;;;14.00;13.33;;;10.20;93.30;;;;;;5026047;28;20558;-68
2022/11/05 02:42:44;;;;;;;13.97;13.27;;;10.20;93.20;;;;;;5028421;28;20498;-68
2022/11/05 02:45:20;;;;;;;14.07;13.00;;;10.20;93.10;;;;;;5027770;28;20625;-68
2022/11/05 02:47:57;;;;;;;13.20;12.50;;;10.30;92.80;;;;;;5021257;28;20816;-68
2022/11/05 02:50:30;;;;;;;14.23;13.53;;;10.20;92.80;;;;;;5026937;28;20463;-68
2022/11/05 02:53:01;;;;;;;13.80;13.10;;;10.20;93.10;;;;;;5027789;28;20496;-68
2022/11/05 02:55:34;;;;;;;14.03;13.40;;;10.20;93.10;;;;;;5028452;28;20985;-68
2022/11/05 02:58:02;;;;;;;13.93;13.23;;;10.20;93.20;;;;;;5024379;28;20453;-68
2022/11/05 03:00:44;;;;;;;13.07;12.57;;;10.20;93.50;;;;;;5022670;28;21004;-68
2022/11/05 03:03:17;;;;;;;14.10;13.40;;;10.20;93.10;;;;;;5027189;28;20559;-68
2022/11/05 03:05:54;;;;;;;14.70;13.80;;;10.20;92.60;;;;;;5024086;28;20475;-68
2022/11/05 03:08:46;;;;;;;14.97;14.20;;;10.20;92.40;;;;;;5025375;28;20543;-68
2022/11/05 03:11:16;;;;;;;13.80;13.20;;;10.20;92.20;;;;;;5010894;28;20896;-68
2022/11/05 03:13:52;;;;;;;14.60;14.00;;;10.20;92.50;;;;;;5023200;28;20452;-68
2022/11/05 03:16:28;;;;;;;14.70;13.73;;;10.20;92.90;;;;;;5026340;28;20558;-68
2022/11/05 03:19:00;;;;;;;14.30;13.60;;;10.10;93.50;;;;;;5025881;28;20541;-68
2022/11/05 03:21:38;;;;;;;15.73;14.93;;;10.10;93.50;;;;;;5024609;28;20538;-68
2022/11/05 03:24:10;;;;;;;14.33;13.63;;;10.10;93.60;;;;;;5025945;28;20486;-68
2022/11/05 03:26:43;;;;;;;14.40;13.80;;;10.20;93.20;;;;;;5023172;28;20473;-68
2022/11/05 03:29:16;;;;;;;14.53;13.83;;;10.20;94.20;;;;;;5026585;28;20462;-68
2022/11/05 03:31:48;;;;;;;15.00;14.30;;;10.20;93.90;;;;;;5027810;28;20961;-68
2022/11/05 03:34:20;;;;;;;14.50;13.77;;;10.20;93.80;;;;;;5025747;28;20487;-68
2022/11/05 03:36:52;;;;;;;14.70;14.00;;;10.20;93.90;;;;;;5027701;28;20574;-68
2022/11/05 03:39:23;;;;;;;15.00;14.20;;;10.20;93.90;;;;;;5026335;28;20452;-68
2022/11/05 03:41:53;;;;;;;14.83;13.87;;;10.20;94.70;;;;;;5028246;28;20466;-68
2022/11/05 03:44:26;;;;;;;15.13;14.43;;;10.20;94.90;;;;;;5026223;28;20563;-68
2022/11/05 03:46:55;;;;;;;17.50;16.70;;;10.20;94.70;;;;;;5026698;28;20522;-68
2022/11/05 03:49:28;;;;;;;24.77;23.43;;;10.20;94.80;;;;;;5027033;28;20543;-71
2022/11/05 03:51:59;;;;;;;14.30;13.50;;;10.20;94.70;;;;;;5026462;28;20467;-68
2022/11/05 03:54:27;;;;;;;14.57;13.97;;;10.30;94.40;;;;;;5016574;28;20472;-68
2022/11/05 03:57:02;;;;;;;14.37;13.47;;;10.30;94.40;;;;;;5026978;28;20487;-68
2022/11/05 03:59:30;;;;;;;15.10;14.40;;;10.30;94.40;;;;;;5025603;28;20548;-68
2022/11/05 04:01:58;;;;;;;14.03;13.43;;;10.30;94.30;;;;;;5026480;28;20534;-68
2022/11/05 04:04:26;;;;;;;14.00;13.30;;;10.30;94.60;;;;;;5018860;28;20975;-68
2022/11/05 04:15:06;;;;;;;14.57;13.77;;;10.20;95.10;;;;;;5026878;28;20487;-68
2022/11/05 04:17:32;;;;;;;15.37;14.67;;;10.20;95.30;;;;;;5024064;28;20467;-68
2022/11/05 04:25:29;;;;;;;15.70;15.00;;;10.10;95.50;;;;;;5030278;28;20888;-68
2022/11/05 04:27:59;;;;;;;13.77;13.17;;;10.10;95.60;;;;;;5029897;28;21006;-68
2022/11/05 04:30:25;;;;;;;14.07;13.40;;;10.20;95.50;;;;;;5030769;28;20466;-68
2022/11/05 04:33:01;;;;;;;17.60;16.70;;;10.20;95.40;;;;;;5025366;28;20448;-68
2022/11/05 04:35:31;;;;;;;21.67;20.57;;;10.20;95.50;;;;;;5019167;28;21028;-68
2022/11/05 04:37:58;;;;;;;14.50;13.80;;;10.20;95.70;;;;;;5025607;28;20466;-68
2022/11/05 04:40:25;;;;;;;14.47;13.67;;;10.20;95.40;;;;;;5032146;28;20458;-68
2022/11/05 04:42:54;;;;;;;13.27;12.67;;;10.10;95.50;;;;;;5030778;28;20530;-69
2022/11/05 04:45:21;;;;;;;14.20;13.20;;;10.20;95.40;;;;;;5029835;28;20578;-69
2022/11/05 04:47:47;;;;;;;18.10;17.30;;;10.20;95.30;;;;;;5029441;28;20459;-68
2022/11/05 04:50:14;;;;;;;14.80;13.80;;;10.20;95.60;;;;;;5031116;28;20814;-68
2022/11/05 04:52:43;;;;;;;14.60;13.90;;;10.10;95.80;;;;;;5027578;28;20892;-68
2022/11/05 04:55:10;;;;;;;13.07;12.27;;;10.10;95.80;;;;;;5029479;28;20565;-68
2022/11/05 04:57:37;;;;;;;15.13;14.43;;;10.20;95.30;;;;;;5030107;28;20466;-68
2022/11/05 05:00:05;;;;;;;16.87;16.10;;;10.10;95.60;;;;;;5031302;28;20483;-68
2022/11/05 05:02:32;;;;;;;14.63;13.93;;;10.10;95.70;;;;;;5029250;28;20956;-68
2022/11/05 05:04:59;;;;;;;17.40;16.57;;;10.10;95.40;;;;;;5028244;28;20456;-68
2022/11/05 05:07:27;;;;;;;14.93;13.87;;;10.10;95.60;;;;;;5030883;28;20454;-68
2022/11/05 05:09:55;;;;;;;13.20;12.70;;;10.10;95.60;;;;;;5029079;28;20546;-68
2022/11/05 05:12:22;;;;;;;13.53;12.73;;;10.10;95.80;;;;;;5029286;28;20791;-68
2022/11/05 05:14:49;;;;;;;13.60;12.90;;;10.10;95.70;;;;;;5027811;28;20594;-69
2022/11/05 05:17:17;;;;;;;28.47;26.90;;;10.10;95.60;;;;;;5029936;28;20560;-69
2022/11/05 05:22:28;;;;;;;18.30;17.00;;;10.10;95.80;;;;;;5024268;28;20451;-69
2022/11/05 05:24:58;;;;;;;18.60;17.37;;;10.10;95.30;;;;;;5028762;28;20551;-69
2022/11/05 05:27:28;;;;;;;15.67;14.77;;;10.10;95.70;;;;;;5027812;28;20590;-69
2022/11/05 05:29:55;;;;;;;18.80;17.80;;;10.10;95.90;;;;;;5029026;28;20582;-69
2022/11/05 05:32:22;;;;;;;17.90;17.03;;;10.10;95.90;;;;;;5028812;28;20448;-68
2022/11/05 05:34:49;;;;;;;17.23;15.67;;;10.10;96.00;;;;;;5027782;28;20476;-69
2022/11/05 05:37:16;;;;;;;15.67;14.77;;;10.20;95.50;;;;;;5029604;28;20969;-69
2022/11/05 05:39:44;;;;;;;18.93;17.93;;;10.20;95.30;;;;;;5028338;28;20535;-69
2022/11/05 05:42:13;;;;;;;16.50;15.50;;;10.20;95.20;;;;;;5026263;28;20452;-69
2022/11/05 05:44:41;;;;;;;15.77;14.97;;;10.20;95.10;;;;;;5026186;28;20577;-69
2022/11/05 05:47:08;;;;;;;22.90;21.80;;;10.20;95.00;;;;;;5028272;28;20460;-69
2022/11/05 05:49:35;;;;;;;17.17;15.43;;;10.10;95.00;;;;;;5028774;28;20460;-69
2022/11/05 05:52:02;;;;;;;16.23;15.43;;;10.10;95.20;;;;;;5027929;28;20455;-69
2022/11/05 05:54:28;;;;;;;15.97;15.10;;;10.10;95.20;;;;;;5026112;28;20456;-69
2022/11/05 05:56:56;;;;;;;18.70;17.80;;;10.10;95.40;;;;;;5030067;28;20524;-69
2022/11/05 05:59:25;;;;;;;18.10;17.20;;;10.10;95.70;;;;;;5026968;28;20511;-69
2022/11/05 06:01:51;;;;;;;23.20;21.70;;;10.20;95.50;;;;;;5024946;28;20827;-69
2022/11/05 06:04:19;;;;;;;21.43;20.00;;;10.20;95.50;;;;;;5026300;28;20452;-70
2022/11/05 06:06:47;;;;;;;16.13;15.10;;;10.20;95.50;;;;;;5030112;28;20502;-69
2022/11/05 06:09:14;;;;;;;17.00;16.10;;;10.30;95.30;;;;;;5024342;28;20802;-69
2022/11/05 06:11:41;;;;;;;22.10;20.97;;;10.30;95.50;;;;;;5028779;28;20543;-69
2022/11/05 06:14:11;;;;;;;17.60;16.60;;;10.20;96.30;;;;;;5024605;28;20544;-69
2022/11/05 06:16:39;;;;;;;25.03;23.60;;;10.20;96.30;;;;;;5024506;28;20481;-69
2022/11/05 06:19:06;;;;;;;24.60;23.20;;;10.20;95.60;;;;;;5017931;28;20559;-69
2022/11/05 06:21:34;;;;;;;21.10;19.90;;;10.20;95.60;;;;;;5027962;28;20555;-69
2022/11/05 06:24:01;;;;;;;27.50;25.80;;;10.20;95.50;;;;;;5020054;28;20550;-69
2022/11/05 06:26:28;;;;;;;27.90;26.13;;;10.20;95.70;;;;;;5028983;28;20471;-69
2022/11/05 06:28:55;;;;;;;30.70;28.80;;;10.30;95.50;;;;;;5028588;28;20467;-69
2022/11/05 06:31:22;;;;;;;32.23;29.90;;;10.30;94.80;;;;;;5027431;28;21384;-69
2022/11/05 06:33:51;;;;;;;29.60;27.50;;;10.20;95.00;;;;;;5024931;28;20456;-69
2022/11/05 06:36:19;;;;;;;35.97;33.55;;;10.30;94.10;;;;;;5026088;28;20469;-69
2022/11/05 06:38:46;;;;;;;29.83;27.67;;;10.40;93.80;;;;;;5023550;28;20296;-70
2022/11/05 06:41:14;;;;;;;40.20;37.50;;;10.30;93.30;;;;;;5025384;28;20586;-69
2022/11/05 06:43:40;;;;;;;29.83;27.57;;;10.20;93.30;;;;;;5025428;28;20464;-69
2022/11/05 06:46:08;;;;;;;38.57;35.87;;;10.10;93.70;;;;;;5024903;28;20578;-70
2022/11/05 06:48:35;;;;;;;46.47;42.97;;;10.10;94.20;;;;;;5025655;28;20464;-69
2022/11/05 06:51:04;;;;;;;29.70;27.50;;;10.10;94.00;;;;;;5025526;28;20539;-68
2022/11/05 06:53:31;;;;;;;31.50;29.10;;;10.10;94.20;;;;;;5021531;28;20460;-68
2022/11/05 06:56:01;;;;;;;32.80;30.23;;;10.10;94.60;;;;;;5028266;28;20484;-69
2022/11/05 06:58:28;;;;;;;31.10;28.60;;;10.20;94.60;;;;;;5027265;28;20711;-69
2022/11/05 07:00:59;;;;;;;32.80;30.30;;;10.30;94.20;;;;;;5028327;28;20886;-69
2022/11/05 07:03:26;;;;;;;33.70;30.67;;;10.30;93.40;;;;;;5025473;28;20456;-69
2022/11/05 07:05:53;;;;;;;30.27;27.73;;;10.30;93.60;;;;;;5020553;28;20988;-70
2022/11/05 07:08:22;;;;;;;42.87;39.97;;;10.40;93.70;;;;;;5022353;28;20988;-70
2022/11/05 07:10:49;;;;;;;36.60;33.90;;;10.50;93.50;;;;;;5022061;28;20447;-68
2022/11/05 07:13:16;;;;;;;36.47;33.90;;;10.50;93.30;;;;;;5023381;28;20456;-68
2022/11/05 07:15:44;;;;;;;44.43;41.43;;;10.40;92.60;;;;;;5026584;28;20480;-67
2022/11/05 07:18:11;;;;;;;35.10;32.50;;;10.40;92.40;;;;;;5028956;28;20468;-68
2022/11/05 07:20:38;;;;;;;31.73;29.30;;;10.40;92.30;;;;;;5027498;28;20460;-71
2022/11/05 07:23:06;;;;;;;31.07;28.67;;;10.40;92.50;;;;;;5027916;28;20919;-69
2022/11/05 07:25:34;;;;;;;43.57;40.70;;;10.40;92.70;;;;;;5027760;28;20526;-69
2022/11/05 07:28:02;;;;;;;40.97;38.07;;;10.30;93.00;;;;;;5027939;28;20460;-69
2022/11/05 07:30:31;;;;;;;42.93;40.17;;;10.40;92.70;;;;;;5028771;28;20444;-69
2022/11/05 07:32:58;;;;;;;38.43;35.33;;;10.40;92.00;;;;;;5027323;28;20774;-69
2022/11/05 07:35:25;;;;;;;33.03;30.60;;;10.30;92.70;;;;;;5025898;28;20914;-69
2022/11/05 07:37:54;;;;;;;41.57;38.70;;;10.30;92.90;;;;;;5028384;28;20546;-70
2022/11/05 07:40:22;;;;;;;31.33;29.03;;;10.40;92.30;;;;;;5026921;28;20471;-70
2022/11/05 07:42:51;;;;;;;33.07;30.77;;;10.40;92.30;;;;;;5025273;28;20455;-71
2022/11/05 07:45:19;;;;;;;37.00;34.47;;;10.40;92.50;;;;;;5025910;28;20594;-69
2022/11/05 07:47:47;;;;;;;37.20;34.37;;;10.50;92.20;;;;;;5021118;28;20451;-69
2022/11/05 07:50:15;;;;;;;32.77;29.80;;;10.50;91.90;;;;;;5019698;28;20830;-68
2022/11/05 07:52:42;;;;;;;32.90;30.40;;;10.50;91.90;;;;;;5023639;28;20466;-67
2022/11/05 07:55:09;;;;;;;38.50;35.60;;;10.60;92.00;;;;;;5020560;28;20554;-72
2022/11/05 07:57:42;;;;;;;30.30;27.90;;;10.60;91.50;;;;;;5018474;28;20456;-70
2022/11/05 08:00:13;;;;;;;46.40;43.50;;;10.50;92.30;;;;;;5024141;28;20460;-69
2022/11/05 08:02:39;;;;;;;32.17;29.67;;;10.70;91.70;;;;;;5022170;28;20460;-69
2022/11/05 08:05:07;;;;;;;32.93;30.43;;;10.70;91.00;;;;;;5022921;28;20478;-71
2022/11/05 08:07:34;;;;;;;33.70;31.10;;;10.70;90.80;;;;;;5026438;28;20537;-69
2022/11/05 08:10:03;;;;;;;36.03;33.50;;;10.70;91.00;;;;;;5023042;28;20459;-67
2022/11/05 08:12:30;;;;;;;43.75;40.95;;;10.70;90.90;;;;;;5024217;28;20470;-68
2022/11/05 08:14:57;;;;;;;29.23;27.07;;;10.60;90.90;;;;;;5018548;28;20193;-67
2022/11/05 08:17:25;;;;;;;38.13;35.70;;;10.60;90.80;;;;;;5024578;28;20483;-71
2022/11/05 08:19:52;;;;;;;28.13;26.07;;;10.30;91.20;;;;;;5025374;28;20492;-70
2022/11/05 08:22:19;;;;;;;26.90;24.90;;;10.20;92.10;;;;;;5025059;28;20467;-71
2022/11/05 08:24:46;;;;;;;30.83;28.87;;;10.10;92.90;;;;;;5024203;28;20463;-69
2022/11/05 08:27:13;;;;;;;25.30;23.60;;;9.90;92.80;;;;;;5024700;28;20460;-68
2022/11/05 08:29:40;;;;;;;23.17;21.77;;;9.80;93.10;;;;;;5023335;28;20463;-68
2022/11/05 08:32:07;;;;;;;31.37;29.47;;;9.80;93.20;;;;;;5024861;28;20471;-69
2022/11/05 08:34:35;;;;;;;24.20;22.70;;;9.70;94.00;;;;;;5025177;28;20549;-73
2022/11/05 08:37:02;;;;;;;20.70;19.40;;;9.70;94.20;;;;;;5016158;28;21257;-68
2022/11/05 08:39:29;;;;;;;29.33;27.60;;;9.60;94.00;;;;;;5026276;28;20874;-67
2022/11/05 08:41:56;;;;;;;23.00;21.70;;;9.60;93.90;;;;;;5024707;28;20585;-67
2022/11/05 08:44:23;;;;;;;19.87;18.87;;;9.60;93.30;;;;;;5024708;28;20555;-67
2022/11/05 08:46:50;;;;;;;28.83;26.87;;;9.70;92.90;;;;;;5023207;28;20477;-67
2022/11/05 08:49:16;;;;;;;19.17;18.07;;;9.90;92.90;;;;;;5018985;28;20467;-67
2022/11/05 08:51:45;;;;;;;27.57;26.27;;;9.90;92.40;;;;;;5022893;28;20562;-67
2022/11/05 08:54:12;;;;;;;27.47;26.10;;;10.00;92.00;;;;;;5025886;28;20495;-68
2022/11/05 08:56:39;;;;;;;20.00;19.00;;;10.10;91.20;;;;;;5026100;28;20582;-69
2022/11/05 08:59:06;;;;;;;24.00;22.80;;;9.90;90.80;;;;;;5026130;28;20485;-69
2022/11/05 09:01:33;;;;;;;18.17;17.07;;;9.90;91.30;;;;;;5025658;28;20477;-69
2022/11/05 09:04:00;;;;;;;26.23;25.00;;;9.80;92.00;;;;;;5028925;28;20466;-69
2022/11/05 09:06:28;;;;;;;19.20;18.10;;;9.90;91.10;;;;;;5025821;28;20560;-69
2022/11/05 09:08:56;;;;;;;31.40;30.00;;;10.10;91.30;;;;;;5028475;28;20554;-68
2022/11/05 09:11:23;;;;;;;18.27;17.37;;;10.20;91.50;;;;;;5028421;28;20463;-69
2022/11/05 09:13:50;;;;;;;19.70;18.40;;;10.30;91.30;;;;;;5029278;28;20547;-69
2022/11/05 09:16:20;;;;;;;27.40;26.00;;;10.50;90.60;;;;;;5026638;28;20501;-69
2022/11/05 09:18:48;;;;;;;23.10;21.80;;;10.50;89.40;;;;;;5030303;28;20463;-68
2022/11/05 09:21:15;;;;;;;21.40;20.20;;;10.40;89.80;;;;;;5028634;28;20471;-69
2022/11/05 09:23:41;;;;;;;27.73;26.33;;;10.50;89.80;;;;;;5027945;28;20492;-69
2022/11/05 09:26:10;;;;;;;23.40;21.60;;;10.60;89.70;;;;;;5029586;28;20463;-69
2022/11/05 09:28:38;;;;;;;22.50;21.20;;;10.70;88.40;;;;;;5014477;28;20491;-68
2022/11/05 09:31:07;;;;;;;27.07;25.60;;;10.60;88.60;;;;;;5028350;28;20475;-68
2022/11/05 09:33:35;;;;;;;22.17;20.93;;;10.60;88.20;;;;;;5027303;28;20469;-68
2022/11/05 09:36:02;;;;;;;38.87;36.90;;;10.60;88.10;;;;;;5030312;28;20491;-68
2022/11/05 09:38:30;;;;;;;20.83;19.63;;;10.50;89.00;;;;;;5028888;28;20538;-69
2022/11/05 09:40:59;;;;;;;30.50;28.80;;;10.60;88.90;;;;;;5022503;28;20489;-69
2022/11/05 09:43:33;;;;;;;24.70;23.27;;;10.50;88.60;;;;;;5026667;28;20759;-69
2022/11/05 09:46:07;;;;;;;27.47;25.90;;;10.50;88.20;;;;;;5029967;28;21012;-69
2022/11/05 09:48:35;;;;;;;32.53;30.93;;;10.40;88.90;;;;;;5027998;28;20539;-69
2022/11/05 09:51:05;;;;;;;24.13;22.80;;;10.40;89.50;;;;;;5028979;28;20478;-69
2022/11/05 09:53:32;;;;;;;25.90;24.60;;;10.40;89.30;;;;;;5022713;28;20980;-69
2022/11/05 09:56:00;;;;;;;26.63;25.10;;;10.40;89.00;;;;;;5027345;28;20571;-69
2022/11/05 09:58:37;;;;;;;22.33;20.93;;;10.40;90.60;;;;;;5029355;28;20941;-69
2022/11/05 10:01:10;;;;;;;26.13;24.73;;;10.50;88.80;;;;;;5026492;28;20998;-69
2022/11/05 10:03:44;;;;;;;30.47;28.43;;;10.40;89.10;;;;;;5025648;28;20474;-69
2022/11/05 10:06:17;;;;;;;25.30;23.70;;;10.50;88.90;;;;;;5021991;28;20506;-69
2022/11/05 10:08:47;;;;;;;25.37;23.67;;;10.50;89.10;;;;;;5021114;28;20455;-68
2022/11/05 10:11:18;;;;;;;26.17;24.23;;;10.50;88.90;;;;;;5027712;28;20566;-67
2022/11/05 10:13:48;;;;;;;26.27;24.67;;;10.50;89.30;;;;;;5025838;28;21032;-67
2022/11/05 10:16:23;;;;;;;29.80;27.93;;;10.60;88.70;;;;;;5026643;28;20492;-67
2022/11/05 10:18:54;;;;;;;33.77;31.97;;;10.60;88.50;;;;;;5019401;28;21020;-67
2022/11/05 10:21:21;;;;;;;34.20;32.33;;;10.70;88.50;;;;;;5025931;28;20995;-67
2022/11/05 10:23:48;;;;;;;27.20;25.50;;;10.80;88.00;;;;;;5028618;28;20456;-68
2022/11/05 10:26:20;;;;;;;24.83;23.00;;;10.80;87.60;;;;;;5024514;28;20481;-68
2022/11/05 10:28:50;;;;;;;23.43;21.90;;;10.80;87.90;;;;;;5026971;28;20452;-68
2022/11/05 10:31:20;;;;;;;33.90;32.10;;;10.80;88.00;;;;;;5026236;28;20563;-67
2022/11/05 10:33:49;;;;;;;26.20;24.50;;;10.80;88.30;;;;;;5027434;28;20540;-68
2022/11/05 10:36:21;;;;;;;33.07;31.17;;;10.80;87.90;;;;;;5026500;28;20478;-68
2022/11/05 10:38:48;;;;;;;29.47;27.77;;;10.80;88.20;;;;;;5023964;28;20475;-68
2022/11/05 10:41:33;;;;;;;25.17;23.47;;;10.90;88.00;;;;;;5026779;28;20460;-70
2022/11/05 10:44:12;;;;;;;26.10;24.50;;;11.10;86.80;;;;;;5026709;28;20646;-68
2022/11/05 10:46:46;;;;;;;33.20;30.43;;;11.20;86.00;;;;;;5021929;28;20472;-68
2022/11/05 10:49:22;;;;;;;35.70;33.20;;;11.30;85.90;;;;;;5024999;28;20468;-68
2022/11/05 10:51:56;;;;;;;29.67;27.57;;;11.50;85.40;;;;;;5024819;28;20550;-68
2022/11/05 10:54:26;;;;;;;34.70;32.17;;;11.60;85.50;;;;;;5025113;28;20498;-67
2022/11/05 10:56:53;;;;;;;28.07;26.20;;;11.80;84.30;;;;;;5023726;28;20479;-67
2022/11/05 10:59:23;;;;;;;29.50;27.70;;;11.60;84.20;;;;;;5026798;28;20477;-68
2022/11/05 11:01:59;;;;;;;37.23;35.00;;;11.60;84.70;;;;;;5025553;28;20526;-68
2022/11/05 11:04:28;;;;;;;36.50;34.20;;;11.80;84.60;;;;;;5025381;28;20462;-67
2022/11/05 11:06:58;;;;;;;28.90;27.10;;;11.80;84.20;;;;;;5023093;28;20939;-68
2022/11/05 11:09:28;;;;;;;32.50;30.50;;;11.70;83.40;;;;;;5022928;28;20898;-67
2022/11/05 11:12:04;;;;;;;25.07;23.53;;;11.70;83.80;;;;;;5025831;28;20972;-68
2022/11/05 11:14:33;;;;;;;33.33;31.23;;;11.80;84.00;;;;;;5025638;28;20995;-68
2022/11/05 11:17:18;;;;;;;27.43;25.70;;;11.90;83.10;;;;;;5023715;28;20483;-68
2022/11/05 11:19:45;;;;;;;45.40;43.30;;;11.60;82.80;;;;;;5020279;28;20837;-68
2022/11/05 11:22:21;;;;;;;29.83;28.03;;;11.50;83.30;;;;;;5023885;28;20447;-68
2022/11/05 11:24:52;;;;;;;41.00;39.00;;;11.50;83.70;;;;;;5026235;28;20931;-67
2022/11/05 11:27:23;;;;;;;30.10;28.30;;;11.70;83.00;;;;;;5027623;28;20462;-68
2022/11/05 11:29:57;;;;;;;25.23;23.73;;;11.90;82.90;;;;;;5023804;28;20467;-67
2022/11/05 11:32:28;;;;;;;33.20;31.10;;;11.90;82.40;;;;;;5022504;28;20455;-67
2022/11/05 11:34:56;;;;;;;34.20;32.20;;;11.70;81.90;;;;;;5010979;28;20464;-68
2022/11/05 11:37:26;;;;;;;32.50;30.63;;;11.60;83.00;;;;;;5026521;28;20484;-67
2022/11/05 11:39:56;;;;;;;32.37;30.47;;;11.70;82.20;;;;;;5024058;28;20555;-69
2022/11/05 11:42:27;;;;;;;34.80;32.80;;;11.80;82.80;;;;;;5028250;28;20979;-69
2022/11/05 11:44:59;;;;;;;33.30;31.37;;;11.80;81.90;;;;;;5025083;28;20466;-69
2022/11/05 11:47:28;;;;;;;33.40;31.50;;;11.90;82.20;;;;;;5023015;28;20451;-69
2022/11/05 11:49:57;;;;;;;28.67;26.53;;;11.90;82.50;;;;;;5025164;28;20464;-68
2022/11/05 11:52:30;;;;;;;28.10;26.30;;;12.10;82.70;;;;;;5026290;28;20830;-69
2022/11/05 11:55:19;;;;;;;30.40;28.30;;;12.10;82.20;;;;;;5024048;28;20980;-69
2022/11/05 11:57:49;;;;;;;30.43;28.67;;;12.20;82.40;;;;;;5027661;28;20562;-69
2022/11/05 12:00:19;;;;;;;27.10;25.50;;;12.40;80.80;;;;;;5023520;28;20551;-69
2022/11/05 12:03:16;;;;;;;29.87;28.00;;;12.30;80.80;;;;;;5020553;28;20468;-67
2022/11/05 12:05:47;;;;;;;37.17;35.20;;;12.30;81.10;;;;;;5022910;28;20488;-67
2022/11/05 12:08:34;;;;;;;28.50;26.80;;;12.20;78.90;;;;;;5026399;28;20538;-69
2022/11/05 12:11:08;;;;;;;25.93;24.50;;;11.80;80.60;;;;;;5024444;28;20450;-69
2022/11/05 12:14:02;;;;;;;35.33;32.87;;;11.80;81.00;;;;;;5027110;28;20463;-69
2022/11/05 12:16:59;;;;;;;30.40;28.43;;;11.90;81.40;;;;;;5024830;28;20512;-67
2022/11/05 12:19:57;;;;;;;41.63;39.37;;;12.20;79.80;;;;;;5017453;28;20565;-67
2022/11/05 12:22:35;;;;;;;29.37;27.57;;;12.10;80.30;;;;;;5024521;28;20814;-67
2022/11/05 12:25:19;;;;;;;33.57;31.67;;;11.80;81.80;;;;;;5025941;28;22452;-67
2022/11/05 12:28:03;;;;;;;31.10;29.00;;;11.80;82.00;;;;;;5023265;28;20570;-67
2022/11/05 12:30:39;;;;;;;28.23;26.40;;;11.80;82.50;;;;;;5025978;28;20581;-67
2022/11/05 12:33:25;;;;;;;39.00;36.27;;;11.90;81.80;;;;;;5025434;28;20458;-67
2022/11/05 12:36:14;;;;;;;32.93;30.83;;;11.90;81.60;;;;;;5024285;28;20554;-67
2022/11/05 12:38:56;;;;;;;32.90;31.00;;;12.00;81.00;;;;;;5025971;28;20491;-67
2022/11/05 12:41:27;;;;;;;30.43;28.70;;;12.10;80.00;;;;;;5028629;28;20480;-67
2022/11/05 12:44:14;;;;;;;31.13;29.47;;;12.20;79.10;;;;;;5028411;28;20491;-67
2022/11/05 12:46:50;;;;;;;32.87;31.00;;;12.00;78.40;;;;;;5025235;28;20480;-67
2022/11/05 12:49:33;;;;;;;35.63;33.60;;;11.70;80.50;;;;;;5027943;28;20456;-67
2022/11/05 12:52:18;;;;;;;36.10;34.00;;;11.40;78.90;;;;;;5028262;28;21034;-67
2022/11/05 12:55:02;;;;;;;44.57;42.03;;;11.20;81.20;;;;;;5029559;28;20548;-67
2022/11/05 12:57:32;;;;;;;28.93;27.00;;;11.40;80.70;;;;;;5026891;28;20475;-67
2022/11/05 13:00:06;;;;;;;33.83;31.90;;;11.60;80.30;;;;;;5028543;28;20727;-68
2022/11/05 13:02:39;;;;;;;40.77;38.13;;;11.90;79.30;;;;;;5030020;28;20545;-68
2022/11/05 13:05:13;;;;;;;33.40;31.60;;;11.90;79.00;;;;;;5022368;28;20571;-68
2022/11/05 13:07:47;;;;;;;31.87;30.07;;;12.10;78.60;;;;;;5026376;28;20813;-68
2022/11/05 13:10:25;;;;;;;34.27;32.40;;;12.10;77.60;;;;;;5022123;28;20465;-68
2022/11/05 13:13:00;;;;;;;33.83;31.63;;;12.20;78.00;;;;;;5029720;28;20467;-68
2022/11/05 13:15:30;;;;;;;30.70;29.00;;;12.30;77.60;;;;;;5028434;28;20470;-69
2022/11/05 13:18:02;;;;;;;33.87;31.77;;;12.40;76.60;;;;;;5024509;28;20481;-70
2022/11/05 13:20:32;;;;;;;31.93;30.00;;;12.30;77.00;;;;;;5026556;28;20960;-70
2022/11/05 13:23:12;;;;;;;40.57;38.17;;;12.50;76.20;;;;;;5029193;28;20451;-69
2022/11/05 13:25:46;;;;;;;31.00;29.10;;;12.40;75.70;;;;;;5028013;28;20558;-69